Time;durP1;ratioP1;P1;durP2;ratioP2;P2;SDS_P1;SDS_P2;PMS_P1;PMS_P2;Temp;Humidity;BMP_temperature;BMP_pressure;BME280_temperature;BME280_humidity;BME280_pressure;Samples;Min_cycle;Max_cycle;Signal;HPM_P1;HPM_P2
2023/03/24 00:06:06;;;;;;;2.97;2.15;;;11.40;99.90;;;;;;20904837;28;20061;-78
2023/03/24 00:16:09;;;;;;;4.55;2.60;;;11.50;99.90;;;;;;20907547;28;20063;-77
2023/03/24 00:26:15;;;;;;;5.72;2.80;;;11.50;99.90;;;;;;20928836;28;20047;-78
2023/03/24 00:36:19;;;;;;;5.25;2.00;;;11.60;99.90;;;;;;20936348;28;20105;-78
2023/03/24 00:46:29;;;;;;;7.03;2.50;;;11.60;99.90;;;;;;20938181;28;20036;-79
2023/03/24 00:56:33;;;;;;;4.50;2.30;;;11.60;99.90;;;;;;20924303;28;20446;-79
2023/03/24 01:06:36;;;;;;;5.78;2.33;;;11.60;99.90;;;;;;20937654;28;20033;-78
2023/03/24 01:16:36;;;;;;;6.68;2.05;;;11.60;99.90;;;;;;20918605;28;20036;-79
2023/03/24 01:26:37;;;;;;;2.67;2.00;;;11.70;99.90;;;;;;20937467;28;20388;-79
2023/03/24 01:36:38;;;;;;;4.57;2.40;;;11.50;99.90;;;;;;20925184;28;20049;-79
2023/03/24 01:46:39;;;;;;;5.87;2.40;;;11.60;99.90;;;;;;20913088;28;20047;-78
2023/03/24 01:56:44;;;;;;;4.83;2.33;;;11.60;99.90;;;;;;20928247;28;20108;-79
2023/03/24 02:06:47;;;;;;;3.22;2.15;;;11.80;99.90;;;;;;20933938;28;20121;-79
2023/03/24 02:17:22;;;;;;;4.68;2.20;;;11.80;99.90;;;;;;20906555;28;20551;-79
2023/03/24 02:27:32;;;;;;;4.75;2.38;;;11.60;99.90;;;;;;20922033;28;20090;-79
2023/03/24 02:38:07;;;;;;;2.53;1.98;;;11.50;99.90;;;;;;20916783;28;20043;-79
2023/03/24 02:48:20;;;;;;;6.78;2.42;;;11.40;99.90;;;;;;20851738;28;20180;-79
2023/03/24 02:58:55;;;;;;;4.38;2.78;;;11.20;99.90;;;;;;20845957;28;20030;-79
2023/03/24 03:09:01;;;;;;;4.63;2.55;;;11.10;99.90;;;;;;20870603;28;20037;-77
2023/03/24 03:19:09;;;;;;;6.00;3.28;;;11.00;99.90;;;;;;20926819;28;20040;-78
2023/03/24 03:29:20;;;;;;;4.60;3.13;;;11.00;99.90;;;;;;20924388;28;20037;-79
2023/03/24 03:39:29;;;;;;;7.97;3.93;;;11.20;99.90;;;;;;20925728;28;20033;-78
2023/03/24 03:49:32;;;;;;;3.88;2.95;;;11.10;99.90;;;;;;20928274;28;20580;-78
2023/03/24 03:59:36;;;;;;;7.23;4.03;;;10.90;99.90;;;;;;20932192;28;20041;-78
2023/03/24 04:10:03;;;;;;;5.93;3.28;;;11.00;99.90;;;;;;20936359;28;20037;-78
2023/03/24 04:20:31;;;;;;;6.38;3.60;;;11.10;99.90;;;;;;20941195;28;20510;-78
2023/03/24 04:30:40;;;;;;;5.18;3.35;;;11.00;99.90;;;;;;20921446;28;20028;-79
2023/03/24 04:40:45;;;;;;;7.30;4.60;;;11.00;99.90;;;;;;21013838;28;20028;-80
2023/03/24 04:50:55;;;;;;;10.05;4.78;;;10.90;99.90;;;;;;20937159;28;20032;-77
2023/03/24 05:00:57;;;;;;;9.18;4.78;;;10.60;99.90;;;;;;20926886;28;20055;-76
2023/03/24 05:11:01;;;;;;;9.63;5.43;;;10.60;99.90;;;;;;20924296;28;20063;-76
2023/03/24 05:21:04;;;;;;;13.02;6.07;;;10.30;99.90;;;;;;20913495;28;20044;-76
2023/03/24 05:31:04;;;;;;;9.63;5.60;;;10.20;99.90;;;;;;20918635;28;20376;-77
2023/03/24 05:41:22;;;;;;;10.43;4.70;;;10.40;99.90;;;;;;20917356;28;20758;-77
2023/03/24 05:51:23;;;;;;;8.13;4.90;;;10.40;99.90;;;;;;20867724;28;20052;-76
2023/03/24 06:01:36;;;;;;;13.00;5.30;;;10.40;99.90;;;;;;20916283;28;20083;-78
2023/03/24 06:11:50;;;;;;;9.98;4.53;;;10.50;99.90;;;;;;20873360;28;20060;-77
2023/03/24 06:21:52;;;;;;;10.73;4.97;;;10.60;99.90;;;;;;20912802;28;20514;-77
2023/03/24 06:31:57;;;;;;;9.68;5.47;;;10.50;99.90;;;;;;20858973;28;20063;-78
2023/03/24 06:41:58;;;;;;;;;;;10.60;99.90;;;;;;20874007;28;20060;-77
2023/03/24 06:52:03;;;;;;;10.20;5.57;;;10.70;99.90;;;;;;20917410;28;19916;-78
2023/03/24 07:02:11;;;;;;;9.32;4.97;;;10.70;99.90;;;;;;20920369;28;20036;-78
2023/03/24 07:12:15;;;;;;;6.43;4.28;;;10.90;99.90;;;;;;20919386;28;20029;-77
2023/03/24 07:22:16;;;;;;;16.00;6.05;;;11.10;99.90;;;;;;20920387;28;20032;-78
2023/03/24 07:32:38;;;;;;;12.45;6.07;;;11.00;99.90;;;;;;20922915;28;20450;-78
2023/03/24 07:42:40;;;;;;;10.82;5.68;;;11.00;99.90;;;;;;20904591;28;20150;-78
2023/03/24 07:53:03;;;;;;;11.77;4.90;;;11.10;99.90;;;;;;20921224;28;20534;-78
2023/03/24 08:03:08;;;;;;;12.03;5.20;;;11.20;99.90;;;;;;20876870;28;20091;-77
2023/03/24 08:13:27;;;;;;;16.15;7.55;;;11.30;99.90;;;;;;20882899;28;20469;-76
2023/03/24 08:23:28;;;;;;;15.53;9.87;;;11.50;99.90;;;;;;20914514;28;20035;-77
2023/03/24 08:33:29;;;;;;;14.30;9.00;;;11.50;99.90;;;;;;20913054;28;20440;-78
2023/03/24 08:43:32;;;;;;;10.07;6.70;;;11.50;99.90;;;;;;20912088;28;20059;-77
2023/03/24 08:53:33;;;;;;;11.98;7.38;;;11.60;99.90;;;;;;20891042;28;20025;-78
2023/03/24 09:03:34;;;;;;;16.17;9.20;;;11.70;99.90;;;;;;20884502;28;20180;-77
2023/03/24 09:13:35;;;;;;;13.30;8.50;;;11.60;99.90;;;;;;20884284;28;20507;-77
2023/03/24 09:23:36;;;;;;;19.03;8.57;;;11.60;99.90;;;;;;20881443;28;20035;-77
2023/03/24 09:33:37;;;;;;;17.43;10.60;;;11.60;99.90;;;;;;20881994;28;20021;-78
2023/03/24 09:43:47;;;;;;;21.10;11.40;;;11.80;99.90;;;;;;20923795;28;20040;-78
2023/03/24 09:54:06;;;;;;;15.07;8.38;;;11.70;99.90;;;;;;20850902;28;20104;-78
2023/03/24 10:04:15;;;;;;;10.32;7.03;;;11.70;99.90;;;;;;20839913;28;20044;-79
2023/03/24 10:14:34;;;;;;;11.70;5.57;;;11.60;99.90;;;;;;20893747;28;20387;-78
2023/03/24 10:24:43;;;;;;;6.85;4.00;;;11.80;99.90;;;;;;20919022;28;20115;-78
2023/03/24 10:34:55;;;;;;;5.50;4.00;;;11.90;99.90;;;;;;20919696;28;20063;-79
2023/03/24 10:44:56;;;;;;;5.25;2.40;;;11.90;99.90;;;;;;20918696;28;20380;-79
2023/03/24 10:55:02;;;;;;;;;;;11.80;99.90;;;;;;20916981;28;20036;-79
2023/03/24 11:05:17;;;;;;;1.75;0.80;;;11.80;99.90;;;;;;20918092;28;19913;-78
2023/03/24 11:15:20;;;;;;;4.72;1.90;;;11.70;99.90;;;;;;20912997;28;20028;-78
2023/03/24 11:25:28;;;;;;;1.83;1.30;;;11.40;99.90;;;;;;20913473;28;20025;-78
2023/03/24 11:35:30;;;;;;;4.43;0.90;;;11.10;99.90;;;;;;20913040;28;20484;-78
2023/03/24 11:45:40;;;;;;;3.22;0.80;;;11.10;99.90;;;;;;20913503;28;20029;-79
2023/03/24 11:56:10;;;;;;;2.03;1.33;;;11.10;99.90;;;;;;20913087;28;20029;-78
2023/03/24 12:06:17;;;;;;;3.40;1.80;;;11.00;99.90;;;;;;20910796;28;20419;-79
2023/03/24 12:16:27;;;;;;;4.50;1.55;;;11.10;99.90;;;;;;20911913;28;20399;-78
2023/03/24 12:26:30;;;;;;;2.92;1.02;;;11.10;99.90;;;;;;20928088;28;20037;-79
2023/03/24 12:37:00;;;;;;;6.72;2.60;;;11.60;99.90;;;;;;20930597;28;20029;-78
2023/03/24 12:47:32;;;;;;;5.75;2.05;;;11.50;99.90;;;;;;20912459;28;20049;-78
2023/03/24 12:57:44;;;;;;;8.23;2.13;;;11.30;99.90;;;;;;20927073;28;20029;-78
2023/03/24 13:07:52;;;;;;;1.83;0.90;;;11.30;99.90;;;;;;20925277;28;20400;-78
2023/03/24 13:18:08;;;;;;;3.92;1.00;;;11.40;99.90;;;;;;20926948;28;20071;-78
2023/03/24 13:28:19;;;;;;;3.03;1.25;;;11.30;99.90;;;;;;20923123;28;20036;-77
2023/03/24 13:38:44;;;;;;;1.50;0.60;;;11.20;99.90;;;;;;20916898;28;20029;-78
2023/03/24 13:48:57;;;;;;;2.50;0.90;;;11.10;99.90;;;;;;20840504;28;20029;-78
2023/03/24 13:58:58;;;;;;;1.98;0.52;;;11.00;99.90;;;;;;20840367;28;20033;-78
2023/03/24 14:09:13;;;;;;;3.77;0.90;;;11.00;99.90;;;;;;20850424;28;20028;-78
2023/03/24 14:19:22;;;;;;;1.15;0.55;;;10.90;99.90;;;;;;20921360;28;20060;-79
2023/03/24 14:29:49;;;;;;;1.85;0.90;;;10.80;99.90;;;;;;20901193;28;20040;-79
2023/03/24 14:39:51;;;;;;;7.05;3.58;;;10.80;99.90;;;;;;20915792;28;20049;-79
2023/03/24 14:49:57;;;;;;;33.88;12.90;;;10.70;99.90;;;;;;20917483;28;20033;-78
2023/03/24 15:00:27;;;;;;;2.55;1.70;;;10.60;99.90;;;;;;20913621;28;20064;-78
2023/03/24 15:11:08;;;;;;;1.67;0.80;;;10.40;99.90;;;;;;20875554;28;20079;-79
2023/03/24 15:21:24;;;;;;;4.70;1.02;;;10.20;99.90;;;;;;20661472;28;20125;-78
2023/03/24 15:31:29;;;;;;;2.25;0.80;;;10.10;99.90;;;;;;20661824;28;20057;-78
2023/03/24 15:41:29;;;;;;;4.10;0.80;;;10.10;99.90;;;;;;20695384;28;20049;-78
2023/03/24 15:51:49;;;;;;;7.77;3.70;;;10.10;99.90;;;;;;20871597;28;20045;-77
2023/03/24 16:01:49;;;;;;;1.83;1.02;;;10.00;99.90;;;;;;20911574;28;20040;-78
2023/03/24 16:11:50;;;;;;;3.33;1.50;;;9.80;99.90;;;;;;20875948;28;20037;-78
2023/03/24 16:21:51;;;;;;;7.17;1.90;;;9.50;99.90;;;;;;20833900;28;20033;-79
2023/03/24 16:31:55;;;;;;;1.70;1.03;;;9.30;99.90;;;;;;20833758;28;20029;-77
2023/03/24 16:41:56;;;;;;;5.25;1.02;;;9.30;99.90;;;;;;20862473;28;20049;-77
2023/03/24 16:51:57;;;;;;;9.77;3.90;;;9.30;99.90;;;;;;20874115;28;20495;-78
2023/03/24 17:02:04;;;;;;;7.23;2.90;;;9.20;99.90;;;;;;20883853;28;20038;-79
2023/03/24 17:12:07;;;;;;;6.40;2.40;;;9.00;99.90;;;;;;20854733;28;20033;-78
2023/03/24 17:22:11;;;;;;;8.40;2.90;;;8.70;99.90;;;;;;20845907;28;20033;-78
2023/03/24 17:32:12;;;;;;;14.77;7.22;;;8.70;99.90;;;;;;20897535;28;20059;-78
2023/03/24 17:42:13;;;;;;;5.33;1.80;;;8.70;99.90;;;;;;20926733;28;20036;-77
2023/03/24 17:52:13;;;;;;;8.60;3.47;;;8.70;99.90;;;;;;20882834;28;20076;-78
2023/03/24 18:02:16;;;;;;;5.73;3.40;;;8.70;99.90;;;;;;20890393;28;20037;-78
2023/03/24 18:12:19;;;;;;;4.30;1.70;;;8.70;99.90;;;;;;20919972;28;20291;-79
2023/03/24 18:22:20;;;;;;;3.15;1.55;;;8.70;99.90;;;;;;20924895;28;20052;-77
2023/03/24 18:32:21;;;;;;;2.78;1.10;;;8.50;99.90;;;;;;20924598;28;20033;-79
2023/03/24 18:42:22;;;;;;;2.20;1.00;;;8.30;99.90;;;;;;20924668;28;20035;-76
2023/03/24 18:52:23;;;;;;;4.07;2.17;;;7.90;99.90;;;;;;20916839;28;20025;-77
2023/03/24 19:02:23;;;;;;;6.03;2.70;;;7.80;99.90;;;;;;20874097;28;20033;-78
2023/03/24 19:12:24;;;;;;;7.17;3.93;;;7.80;99.90;;;;;;20828102;28;20143;-77
2023/03/24 19:22:26;;;;;;;7.53;2.53;;;7.50;99.90;;;;;;20828919;28;20040;-78
2023/03/24 19:32:27;;;;;;;4.93;2.50;;;7.00;99.90;;;;;;20831003;28;20037;-78
2023/03/24 19:42:30;;;;;;;5.90;2.13;;;6.80;99.90;;;;;;20827330;28;20026;-77
2023/03/24 19:52:30;;;;;;;5.25;2.83;;;6.40;99.90;;;;;;20829951;28;20057;-78
2023/03/24 20:02:31;;;;;;;;;;;5.80;99.90;;;;;;20826220;28;20044;-77
2023/03/24 20:12:32;;;;;;;6.17;3.50;;;5.50;99.90;;;;;;20827013;28;19952;-78
2023/03/24 20:22:33;;;;;;;;;;;5.70;99.90;;;;;;20831688;28;20287;-78
2023/03/24 20:32:34;;;;;;;7.57;3.95;;;5.70;99.90;;;;;;20890504;28;20345;-78
2023/03/24 20:42:35;;;;;;;7.05;4.10;;;5.80;99.90;;;;;;20917254;28;20051;-79
2023/03/24 20:52:36;;;;;;;5.30;3.00;;;5.70;99.90;;;;;;20929204;28;20485;-78
2023/03/24 21:02:37;;;;;;;;;;;5.60;99.90;;;;;;20930635;28;20082;-77
2023/03/24 21:12:38;;;;;;;4.80;2.87;;;5.50;99.90;;;;;;20929288;28;19912;-78
2023/03/24 21:22:54;;;;;;;6.75;3.50;;;5.50;99.90;;;;;;20924734;28;20165;-78
2023/03/24 21:32:56;;;;;;;8.27;3.20;;;5.50;99.90;;;;;;20914799;28;20099;-78
2023/03/24 21:43:04;;;;;;;8.80;3.65;;;5.40;99.90;;;;;;20895589;28;20072;-79
2023/03/24 21:53:13;;;;;;;8.07;3.03;;;5.40;99.90;;;;;;20886396;28;20031;-78
2023/03/24 22:03:15;;;;;;;4.47;2.22;;;5.40;99.90;;;;;;20900255;28;20033;-79
2023/03/24 22:13:16;;;;;;;5.13;2.40;;;5.90;99.90;;;;;;20891763;28;20091;-78
2023/03/24 22:23:18;;;;;;;;;;;6.70;99.90;;;;;;20890083;28;20017;-79
2023/03/24 22:33:19;;;;;;;8.05;4.40;;;6.40;99.90;;;;;;20877339;28;19921;-78
2023/03/24 22:43:20;;;;;;;;;;;6.60;99.90;;;;;;20899665;28;20032;-78
2023/03/24 22:53:21;;;;;;;8.07;3.65;;;6.70;99.90;;;;;;20906918;28;19999;-78
2023/03/24 23:03:22;;;;;;;4.93;2.67;;;6.90;99.90;;;;;;20900690;28;20029;-78
2023/03/24 23:13:24;;;;;;;7.97;1.73;;;7.50;99.90;;;;;;20894978;28;20021;-78
2023/03/24 23:23:25;;;;;;;3.55;1.10;;;7.80;99.90;;;;;;20913376;28;20052;-78
2023/03/24 23:33:26;;;;;;;3.38;0.68;;;7.80;99.90;;;;;;20907341;28;20407;-78
2023/03/24 23:43:27;;;;;;;4.18;0.75;;;7.70;99.90;;;;;;20886958;28;20037;-78
2023/03/24 23:53:28;;;;;;;;;;;7.50;99.90;;;;;;20910457;28;20125;-79
